Lawncrest, Pennsylvania
Current Conditions -  °F | °C
As of 1:22 AM on Saturday 20 Dec 2014 (Local Time) from KPNE Reporting Station
Overcast Overcast  
Wind Chill: 29°   Ceiling: 2900
Heat Index: 35°   Visibility: 10mi
Dew Point: 21°   Wind: 8mph
Humidity: 57%   Direction: 340°NNW
Pressure: 30.21"   Gusts: NA
Location:  40.063°N, 75.0797°W
Report Text: KPNE 200622Z AUTO 34007KT 10SM OVC029 02/M06 A3021 RMK AO2 T00171061 TSNO $
Loading
Personal Weather Stations






























Interactive Weather Map New forecast layout! Learn more

10-Day Weather Forecast

Advertisements
Track Severe Weather on mobile